createdAt,value
2019-02-28T00:01:02.007Z,12.57
2019-02-28T00:03:29.424Z,12.47
2019-02-28T00:05:56.856Z,12.30
2019-02-28T00:08:24.267Z,11.93
2019-02-28T00:10:51.736Z,12.07
2019-02-28T00:13:21.834Z,12.13
2019-02-28T00:15:48.347Z,11.80
2019-02-28T00:18:16.710Z,13.73
2019-02-28T00:20:44.136Z,12.77
2019-02-28T00:23:11.534Z,13.20
2019-02-28T00:25:39.040Z,13.83
2019-02-28T00:28:06.434Z,13.13
2019-02-28T00:30:33.924Z,15.03
2019-02-28T00:33:01.378Z,12.93
2019-02-28T00:35:28.804Z,11.20
2019-02-28T00:37:57.372Z,12.50
2019-02-28T00:40:24.839Z,12.70
2019-02-28T00:42:52.233Z,12.40
2019-02-28T00:45:19.655Z,10.60
2019-02-28T00:47:47.695Z,12.93
2019-02-28T00:50:15.815Z,12.50
2019-02-28T00:52:43.231Z,13.10
2019-02-28T00:55:14.488Z,12.27
2019-02-28T00:57:40.763Z,12.77
2019-02-28T01:00:09.971Z,12.10
2019-02-28T01:02:37.394Z,13.30
2019-02-28T01:05:06.102Z,10.87
2019-02-28T01:07:33.586Z,12.77
2019-02-28T01:10:01.328Z,11.73
2019-02-28T01:12:30.059Z,12.90
2019-02-28T01:14:57.462Z,12.43
2019-02-28T01:17:26.740Z,10.67
2019-02-28T01:19:54.018Z,11.53
2019-02-28T01:22:21.512Z,12.60
2019-02-28T01:24:48.945Z,10.37
2019-02-28T01:27:17.316Z,11.60
2019-02-28T01:29:45.579Z,11.30
2019-02-28T01:32:15.492Z,12.77
2019-02-28T01:34:42.147Z,11.57
2019-02-28T01:37:09.565Z,9.93
2019-02-28T01:39:36.968Z,11.30
2019-02-28T01:42:04.458Z,11.87
2019-02-28T01:44:35.591Z,11.17
2019-02-28T01:47:01.003Z,11.43
2019-02-28T01:49:28.407Z,10.70
2019-02-28T01:51:55.822Z,10.90
2019-02-28T01:54:25.147Z,11.83
2019-02-28T01:56:52.319Z,10.67
2019-02-28T01:59:21.595Z,11.50
2019-02-28T02:01:48.834Z,11.07
2019-02-28T02:04:17.091Z,11.90
2019-02-28T02:06:44.463Z,12.10
2019-02-28T02:09:11.934Z,12.30
2019-02-28T02:11:39.439Z,12.67
2019-02-28T02:14:07.486Z,13.73
2019-02-28T02:16:35.992Z,12.33
2019-02-28T02:19:03.588Z,11.30
2019-02-28T02:21:31.534Z,12.30
2019-02-28T02:24:00.075Z,13.00
2019-02-28T02:26:27.469Z,11.33
2019-02-28T02:28:54.899Z,12.13
2019-02-28T02:31:27.276Z,11.63
2019-02-28T02:33:52.656Z,12.10
2019-02-28T02:36:20.255Z,11.90
2019-02-28T02:38:47.749Z,11.90
2019-02-28T02:41:15.134Z,12.43
2019-02-28T02:43:42.639Z,12.37
2019-02-28T02:46:10.036Z,12.77
2019-02-28T02:48:38.453Z,11.90
2019-02-28T02:51:10.668Z,12.67
2019-02-28T02:53:41.514Z,12.83
2019-02-28T02:56:05.063Z,12.17
2019-02-28T02:58:32.543Z,11.90
2019-02-28T03:01:00.049Z,11.37
2019-02-28T03:03:27.542Z,11.77
2019-02-28T03:05:54.939Z,11.00
2019-02-28T03:08:22.364Z,10.90
2019-02-28T03:10:51.918Z,12.30
2019-02-28T03:13:18.827Z,10.83
2019-02-28T03:15:46.222Z,10.00
2019-02-28T03:18:13.645Z,10.63
2019-02-28T03:20:42.411Z,9.43
2019-02-28T03:23:09.973Z,10.47
2019-02-28T03:25:37.371Z,10.93
2019-02-28T03:28:04.800Z,10.63
2019-02-28T03:30:33.487Z,11.10
2019-02-28T03:33:01.261Z,11.00
2019-02-28T03:35:40.135Z,10.70
2019-02-28T03:37:57.803Z,11.70
2019-02-28T03:40:25.226Z,10.80
2019-02-28T03:42:52.631Z,10.60
2019-02-28T03:45:20.147Z,11.17
2019-02-28T03:47:47.552Z,11.70
2019-02-28T03:50:15.035Z,13.00
2019-02-28T03:52:44.160Z,10.80
2019-02-28T03:55:12.176Z,11.80
2019-02-28T03:57:39.731Z,11.43
2019-02-28T04:00:11.363Z,11.30
2019-02-28T04:02:38.833Z,11.70
2019-02-28T04:05:07.122Z,11.37
2019-02-28T04:07:34.739Z,11.67
2019-02-28T04:10:02.308Z,11.00
2019-02-28T04:12:29.694Z,10.93
2019-02-28T04:14:57.160Z,10.87
2019-02-28T04:17:30.099Z,12.70
2019-02-28T04:19:58.813Z,12.70
2019-02-28T04:22:23.112Z,13.87
2019-02-28T04:24:51.349Z,11.73
2019-02-28T04:27:18.753Z,11.90
2019-02-28T04:29:46.175Z,12.13
2019-02-28T04:32:13.590Z,12.10
2019-02-28T04:34:41.010Z,11.90
2019-02-28T04:37:09.526Z,13.17
2019-02-28T04:39:37.226Z,11.87
2019-02-28T04:42:05.233Z,12.53
2019-02-28T04:44:33.577Z,14.07
2019-02-28T04:47:03.338Z,11.70
2019-02-28T04:49:30.124Z,12.37
2019-02-28T04:51:57.544Z,11.43
2019-02-28T04:54:27.826Z,11.73
2019-02-28T04:56:54.015Z,12.40
2019-02-28T04:59:21.434Z,12.67
2019-02-28T05:01:48.843Z,12.50
2019-02-28T05:04:16.310Z,13.37
2019-02-28T05:06:43.742Z,12.33
2019-02-28T05:09:14.543Z,13.37
2019-02-28T05:11:40.318Z,11.90
2019-02-28T05:14:07.738Z,11.53
2019-02-28T05:16:35.165Z,12.63
2019-02-28T05:19:02.629Z,12.47
2019-02-28T05:21:29.993Z,11.20
2019-02-28T05:23:57.458Z,10.57
2019-02-28T05:26:26.313Z,12.23
2019-02-28T05:28:53.941Z,11.33
2019-02-28T05:31:24.099Z,11.53
2019-02-28T05:33:50.419Z,11.07
2019-02-28T05:36:17.957Z,9.83
2019-02-28T05:38:45.344Z,11.70
2019-02-28T05:41:15.374Z,11.67
2019-02-28T05:43:41.815Z,11.80
2019-02-28T05:46:09.240Z,9.83
2019-02-28T05:48:38.786Z,10.13
2019-02-28T05:51:05.807Z,10.77
2019-02-28T05:53:33.204Z,12.37
2019-02-28T05:56:00.633Z,10.23
2019-02-28T05:58:28.103Z,11.17
2019-02-28T06:00:55.527Z,11.80
2019-02-28T06:03:23.069Z,10.27
2019-02-28T06:05:50.684Z,11.23
2019-02-28T06:08:18.231Z,11.87
2019-02-28T06:10:45.653Z,10.03
2019-02-28T06:13:18.240Z,11.60
2019-02-28T06:15:45.403Z,10.93
2019-02-28T06:18:12.802Z,12.60
2019-02-28T06:20:40.193Z,11.10
2019-02-28T06:23:09.459Z,12.50
2019-02-28T06:25:36.674Z,12.00
2019-02-28T06:28:04.088Z,12.33
2019-02-28T06:30:31.482Z,12.57
2019-02-28T06:32:59.585Z,12.80
2019-02-28T06:35:27.104Z,12.37
2019-02-28T06:37:54.530Z,12.00
2019-02-28T06:40:21.999Z,11.80
2019-02-28T06:42:49.421Z,13.57
2019-02-28T06:45:20.203Z,12.33
2019-02-28T06:47:49.524Z,10.87
2019-02-28T06:50:16.924Z,12.77
2019-02-28T06:52:44.513Z,12.47
2019-02-28T06:55:25.961Z,12.63
2019-02-28T06:57:53.386Z,13.93
2019-02-28T07:00:20.788Z,13.90
2019-02-28T07:02:50.069Z,12.67
2019-02-28T07:05:17.424Z,13.57
2019-02-28T07:07:45.969Z,13.40
2019-02-28T07:10:14.578Z,13.55
2019-02-28T07:12:41.998Z,14.10
2019-02-28T07:15:09.867Z,13.90
2019-02-28T07:17:37.290Z,13.77
2019-02-28T07:20:06.225Z,16.43
2019-02-28T07:22:33.748Z,14.00
2019-02-28T07:25:01.261Z,13.70
2019-02-28T07:27:29.797Z,13.90
2019-02-28T07:29:57.311Z,15.67
2019-02-28T07:32:26.149Z,13.30
2019-02-28T07:34:54.989Z,13.30
2019-02-28T07:37:23.228Z,14.43
2019-02-28T07:39:50.623Z,12.67
2019-02-28T07:42:18.043Z,12.63
2019-02-28T07:44:45.439Z,15.23
2019-02-28T07:47:17.129Z,14.87
2019-02-28T07:49:41.898Z,15.60
2019-02-28T07:52:09.327Z,17.23
2019-02-28T07:54:36.861Z,15.90
2019-02-28T07:57:04.292Z,15.23
2019-02-28T07:59:31.941Z,18.27
2019-02-28T08:01:59.946Z,16.77
2019-02-28T08:04:28.416Z,16.00
2019-02-28T08:06:55.832Z,19.00
2019-02-28T08:09:24.798Z,15.90
2019-02-28T08:11:55.711Z,17.50
2019-02-28T08:14:21.280Z,20.20
2019-02-28T08:16:48.674Z,16.57
2019-02-28T08:19:16.229Z,19.90
2019-02-28T08:21:46.944Z,16.40
2019-02-28T08:24:12.690Z,15.90
2019-02-28T08:26:40.092Z,17.27
2019-02-28T08:29:09.113Z,18.17
2019-02-28T08:31:36.638Z,18.37
2019-02-28T08:34:04.058Z,19.10
2019-02-28T08:36:31.570Z,19.03
2019-02-28T08:38:58.990Z,18.30
2019-02-28T08:41:26.484Z,16.93
2019-02-28T08:43:53.966Z,18.50
2019-02-28T08:46:21.362Z,19.70
2019-02-28T08:48:48.782Z,18.87
2019-02-28T08:51:16.206Z,22.30
2019-02-28T08:53:43.631Z,20.63
2019-02-28T08:56:14.093Z,17.77
2019-02-28T08:58:42.610Z,20.30
2019-02-28T09:01:09.622Z,18.40
2019-02-28T09:03:37.119Z,22.63
2019-02-28T09:06:07.262Z,18.92
2019-02-28T09:08:33.657Z,20.53
2019-02-28T09:11:01.090Z,20.13
2019-02-28T09:13:28.478Z,22.30
2019-02-28T09:15:55.931Z,18.63
2019-02-28T09:18:23.338Z,23.97
2019-02-28T09:20:50.768Z,23.43
2019-02-28T09:23:18.162Z,21.83
2019-02-28T09:25:45.588Z,27.17
2019-02-28T09:28:13.744Z,24.97
2019-02-28T09:30:45.803Z,23.00
2019-02-28T09:33:13.202Z,24.13
2019-02-28T09:35:45.199Z,22.37
2019-02-28T09:38:13.361Z,26.53
2019-02-28T09:40:38.755Z,21.17
2019-02-28T09:43:06.154Z,25.67
2019-02-28T09:45:33.944Z,22.47
2019-02-28T09:48:02.317Z,27.23
2019-02-28T09:50:30.114Z,25.80
2019-02-28T09:52:57.514Z,26.00
2019-02-28T09:55:24.939Z,27.57
2019-02-28T09:57:54.780Z,24.33
2019-02-28T10:00:22.063Z,23.70
2019-02-28T10:02:49.463Z,29.63
2019-02-28T10:05:16.964Z,25.30
2019-02-28T10:07:44.438Z,24.13
2019-02-28T10:10:13.978Z,29.07
2019-02-28T10:12:43.085Z,24.10
2019-02-28T10:15:12.099Z,27.73
2019-02-28T10:17:39.566Z,25.83
2019-02-28T10:20:08.534Z,25.40
2019-02-28T10:22:35.939Z,25.80
2019-02-28T10:25:06.467Z,22.57
2019-02-28T10:27:32.680Z,19.63
2019-02-28T10:30:00.148Z,25.10
2019-02-28T10:32:27.530Z,23.57
2019-02-28T10:34:54.963Z,22.13
2019-02-28T10:37:22.839Z,20.77
2019-02-28T10:39:50.916Z,24.67
2019-02-28T10:42:18.379Z,24.03
2019-02-28T10:44:45.779Z,24.10
2019-02-28T10:47:13.206Z,20.27
2019-02-28T10:49:40.586Z,20.23
2019-02-28T10:52:08.070Z,20.60
2019-02-28T10:54:35.464Z,19.67
2019-02-28T10:57:03.136Z,21.93
2019-02-28T10:59:32.002Z,22.20
2019-02-28T11:01:59.543Z,20.93
2019-02-28T11:04:27.596Z,16.67
2019-02-28T11:06:55.068Z,22.03
2019-02-28T11:09:25.361Z,23.83
2019-02-28T11:11:51.855Z,20.47
2019-02-28T11:14:19.257Z,24.73
2019-02-28T11:16:46.843Z,23.63
2019-02-28T11:19:18.638Z,23.70
2019-02-28T11:21:44.022Z,20.27
2019-02-28T11:24:11.419Z,23.20
2019-02-28T11:26:41.339Z,22.43
2019-02-28T11:29:07.986Z,22.63
2019-02-28T11:31:35.409Z,20.40
2019-02-28T11:34:02.985Z,19.63
2019-02-28T11:36:33.852Z,22.98
2019-02-28T11:38:59.663Z,19.80
2019-02-28T11:41:27.146Z,20.43
2019-02-28T11:43:54.543Z,20.53
2019-02-28T11:46:21.972Z,20.03
2019-02-28T11:48:51.060Z,17.10
2019-02-28T11:51:18.526Z,21.60
2019-02-28T11:53:46.034Z,20.53
2019-02-28T11:56:13.530Z,21.00
2019-02-28T11:58:40.926Z,19.87
2019-02-28T12:01:10.532Z,20.47
2019-02-28T12:03:37.482Z,22.57
2019-02-28T12:06:06.752Z,21.73
2019-02-28T12:08:33.957Z,22.50
2019-02-28T12:11:01.877Z,22.70
2019-02-28T12:13:30.309Z,24.70
2019-02-28T12:15:57.709Z,23.23
2019-02-28T12:18:26.165Z,22.90
2019-02-28T12:20:53.659Z,22.77
2019-02-28T12:23:23.500Z,23.53
2019-02-28T12:25:50.158Z,21.63
2019-02-28T12:28:17.650Z,21.77
2019-02-28T12:30:45.271Z,22.10
2019-02-28T12:33:15.349Z,20.00
2019-02-28T12:35:41.742Z,21.93
2019-02-28T12:38:09.330Z,20.90
2019-02-28T12:40:37.896Z,21.60
2019-02-28T12:43:08.601Z,20.37
2019-02-28T12:45:36.871Z,20.73
2019-02-28T12:48:04.371Z,18.50
2019-02-28T12:50:31.857Z,20.50
2019-02-28T12:52:59.266Z,21.53
2019-02-28T12:55:26.724Z,20.13
2019-02-28T12:57:54.818Z,21.03
2019-02-28T13:00:24.568Z,18.10
2019-02-28T13:02:51.993Z,22.90
2019-02-28T13:05:19.509Z,20.77
2019-02-28T13:07:48.538Z,22.27
2019-02-28T13:10:17.223Z,20.93
2019-02-28T13:12:48.836Z,19.53
2019-02-28T13:15:15.181Z,22.30
2019-02-28T13:17:42.671Z,20.13
2019-02-28T13:20:11.603Z,21.50
2019-02-28T13:22:39.121Z,20.87
2019-02-28T13:25:07.678Z,19.90
2019-02-28T13:27:35.110Z,20.70
2019-02-28T13:30:05.473Z,19.00
2019-02-28T13:32:33.767Z,20.17
2019-02-28T13:35:02.848Z,20.50
2019-02-28T13:37:29.751Z,19.80
2019-02-28T13:39:57.221Z,22.00
2019-02-28T13:42:24.648Z,23.77
2019-02-28T13:44:52.063Z,21.60
2019-02-28T13:47:19.477Z,20.93
2019-02-28T13:49:49.850Z,22.97
2019-02-28T13:52:20.306Z,26.00
2019-02-28T13:54:45.131Z,22.20
2019-02-28T13:57:12.623Z,17.63
2019-02-28T13:59:40.030Z,20.57
2019-02-28T14:02:07.442Z,17.40
2019-02-28T14:04:34.851Z,22.33
2019-02-28T14:07:02.247Z,19.50
2019-02-28T14:09:29.668Z,20.63
2019-02-28T14:11:57.058Z,19.30
2019-02-28T14:14:24.487Z,21.13
2019-02-28T14:16:51.902Z,19.17
2019-02-28T14:19:20.457Z,18.43
2019-02-28T14:21:48.397Z,20.13
2019-02-28T14:24:15.824Z,16.50
2019-02-28T14:26:46.540Z,21.00
2019-02-28T14:29:12.377Z,20.60
2019-02-28T14:31:39.870Z,19.43
2019-02-28T14:34:07.373Z,17.67
2019-02-28T14:36:34.771Z,18.17
2019-02-28T14:39:04.691Z,15.90
2019-02-28T14:41:31.981Z,19.00
2019-02-28T14:43:59.551Z,16.37
2019-02-28T14:46:26.944Z,18.27
2019-02-28T14:48:54.462Z,17.50
2019-02-28T14:51:21.875Z,19.23
2019-02-28T14:53:50.109Z,17.07
2019-02-28T14:56:17.597Z,17.40
2019-02-28T14:58:45.031Z,18.87
2019-02-28T15:01:16.797Z,18.10
2019-02-28T15:03:41.671Z,19.37
2019-02-28T15:06:09.073Z,17.60
2019-02-28T15:08:36.578Z,16.90
2019-02-28T15:11:06.536Z,18.20
2019-02-28T15:13:34.225Z,16.00
2019-02-28T15:16:01.767Z,14.97
2019-02-28T15:18:29.272Z,17.53
2019-02-28T15:20:56.677Z,16.80
2019-02-28T15:23:24.192Z,19.67
2019-02-28T15:25:54.034Z,17.00
2019-02-28T15:28:20.673Z,20.10
2019-02-28T15:30:48.140Z,21.07
2019-02-28T15:33:15.565Z,22.37
2019-02-28T15:35:42.981Z,20.57
2019-02-28T15:38:10.521Z,19.10
2019-02-28T15:40:41.502Z,21.13
2019-02-28T15:43:08.949Z,18.40
2019-02-28T15:45:37.279Z,17.63
2019-02-28T15:48:04.988Z,22.30
2019-02-28T15:50:32.403Z,20.67
2019-02-28T15:52:59.971Z,21.40
2019-02-28T15:55:27.572Z,22.43
2019-02-28T15:57:55.114Z,22.50
2019-02-28T16:00:24.147Z,23.13
2019-02-28T16:02:51.720Z,22.03
2019-02-28T16:05:19.328Z,19.50
2019-02-28T16:07:46.726Z,20.20
2019-02-28T16:10:15.670Z,20.67
2019-02-28T16:12:43.070Z,20.17
2019-02-28T16:15:11.862Z,21.33
2019-02-28T16:17:40.035Z,20.53
2019-02-28T16:20:08.726Z,20.80
2019-02-28T16:22:36.127Z,21.17
2019-02-28T16:25:05.134Z,18.50
2019-02-28T16:27:33.044Z,18.97
2019-02-28T16:30:00.554Z,16.80
2019-02-28T16:32:29.926Z,15.50
2019-02-28T16:34:57.151Z,16.80
2019-02-28T16:37:24.556Z,16.80
2019-02-28T16:39:51.968Z,18.17
2019-02-28T16:42:19.375Z,15.30
2019-02-28T16:44:46.797Z,13.60
2019-02-28T16:47:14.187Z,15.50
2019-02-28T16:49:44.464Z,14.60
2019-02-28T16:52:10.726Z,12.87
2019-02-28T16:54:38.149Z,15.60
2019-02-28T16:57:05.619Z,16.17
2019-02-28T16:59:33.055Z,13.93
2019-02-28T17:02:00.582Z,13.55
2019-02-28T17:04:28.125Z,14.20
2019-02-28T17:06:55.600Z,13.33
2019-02-28T17:09:26.674Z,13.00
2019-02-28T17:12:01.047Z,14.90
2019-02-28T17:14:28.555Z,15.13
2019-02-28T17:17:00.552Z,16.53
2019-02-28T17:19:28.558Z,17.20
2019-02-28T17:21:57.139Z,18.47
2019-02-28T17:24:24.591Z,17.30
2019-02-28T17:27:06.337Z,17.93
2019-02-28T17:29:33.651Z,15.83
2019-02-28T17:32:01.138Z,17.63
2019-02-28T17:34:28.542Z,15.80
2019-02-28T17:36:55.976Z,19.07
2019-02-28T17:39:23.393Z,17.37
2019-02-28T17:41:50.889Z,18.17
2019-02-28T17:44:22.753Z,16.60
2019-02-28T17:46:51.807Z,18.03
2019-02-28T17:49:38.911Z,16.77
2019-02-28T17:52:12.245Z,14.97
2019-02-28T17:54:44.162Z,17.00
2019-02-28T17:57:22.068Z,15.53
2019-02-28T18:00:09.315Z,14.00
2019-02-28T18:02:38.409Z,12.23
2019-02-28T18:05:07.892Z,12.67
2019-02-28T18:07:42.835Z,11.07
2019-02-28T18:10:11.775Z,10.93
2019-02-28T18:12:46.487Z,12.07
2019-02-28T18:15:33.629Z,11.07
2019-02-28T18:18:08.940Z,11.97
2019-02-28T18:20:38.681Z,9.83
2019-02-28T18:23:27.972Z,10.00
2019-02-28T18:26:05.261Z,10.72
2019-02-28T18:28:37.274Z,9.33
2019-02-28T18:31:08.953Z,10.03
2019-02-28T18:33:37.384Z,9.60
2019-02-28T18:36:08.294Z,8.80
2019-02-28T18:38:36.461Z,9.67
2019-02-28T18:41:05.769Z,9.50
2019-02-28T18:43:33.655Z,9.63
2019-02-28T18:46:05.431Z,9.66
2019-02-28T18:48:33.121Z,9.47
2019-02-28T18:51:01.123Z,9.70
2019-02-28T18:53:29.221Z,8.60
2019-02-28T18:55:57.087Z,8.10
2019-02-28T18:58:24.861Z,8.40
2019-02-28T19:00:52.301Z,8.20
2019-02-28T19:03:19.683Z,8.47
2019-02-28T19:05:47.076Z,9.53
2019-02-28T19:08:14.517Z,8.93
2019-02-28T19:10:41.924Z,7.77
2019-02-28T19:13:09.349Z,7.03
2019-02-28T19:15:36.738Z,6.43
2019-02-28T19:18:04.232Z,6.23
2019-02-28T19:20:31.627Z,5.70
2019-02-28T19:22:59.045Z,6.10
2019-02-28T19:25:26.436Z,7.10
2019-02-28T19:27:53.959Z,5.60
2019-02-28T19:30:21.356Z,5.17
2019-02-28T19:32:48.787Z,5.07
2019-02-28T19:35:16.191Z,4.50
2019-02-28T19:37:43.667Z,4.50
2019-02-28T19:40:11.940Z,5.20
2019-02-28T19:42:39.358Z,5.10
2019-02-28T19:45:10.957Z,5.27
2019-02-28T19:47:38.419Z,4.47
2019-02-28T19:50:07.571Z,5.37
2019-02-28T19:52:34.935Z,5.20
2019-02-28T19:55:02.360Z,5.10
2019-02-28T19:57:29.780Z,5.50
2019-02-28T19:59:57.169Z,5.17
2019-02-28T20:02:24.593Z,4.77
2019-02-28T20:04:52.049Z,4.20
2019-02-28T20:07:19.461Z,4.20
2019-02-28T20:09:46.851Z,4.33
2019-02-28T20:12:14.347Z,7.03
2019-02-28T20:14:42.084Z,5.97
2019-02-28T20:17:09.576Z,5.77
2019-02-28T20:19:36.962Z,8.33
2019-02-28T20:22:04.650Z,8.20
2019-02-28T20:24:32.050Z,5.80
2019-02-28T20:26:59.587Z,6.87
2019-02-28T20:29:26.979Z,5.33
2019-02-28T20:31:54.371Z,8.93
2019-02-28T20:34:21.785Z,6.00
2019-02-28T20:36:58.029Z,7.91
2019-02-28T20:39:25.563Z,5.12
2019-02-28T20:41:52.955Z,5.03
2019-02-28T20:44:20.390Z,5.00
2019-02-28T20:46:47.841Z,5.50
2019-02-28T20:49:15.259Z,4.90
2019-02-28T20:51:42.732Z,6.37
2019-02-28T20:54:10.150Z,4.97
2019-02-28T20:56:37.539Z,3.70
2019-02-28T20:59:04.976Z,5.03
2019-02-28T21:01:32.375Z,4.60
2019-02-28T21:03:59.945Z,4.10
2019-02-28T21:06:27.370Z,4.40
2019-02-28T21:08:54.789Z,5.30
2019-02-28T21:11:22.257Z,4.47
2019-02-28T21:13:49.677Z,3.63
2019-02-28T21:16:17.067Z,4.53
2019-02-28T21:18:44.487Z,3.33
2019-02-28T21:21:11.879Z,3.80
2019-02-28T21:23:39.309Z,3.00
2019-02-28T21:26:06.839Z,4.80
2019-02-28T21:28:34.267Z,4.13
2019-02-28T21:31:01.663Z,4.43
2019-02-28T21:33:29.081Z,3.30
2019-02-28T21:35:56.557Z,3.70
2019-02-28T21:38:23.977Z,3.07
2019-02-28T21:40:51.641Z,4.17
2019-02-28T21:43:19.074Z,3.90
2019-02-28T21:45:46.457Z,3.50
2019-02-28T21:48:13.879Z,3.17
2019-02-28T21:50:41.273Z,4.20
2019-02-28T21:53:08.695Z,3.50
2019-02-28T21:55:36.100Z,3.77
2019-02-28T21:58:03.603Z,4.43
2019-02-28T22:00:31.563Z,4.07
2019-02-28T22:02:58.965Z,3.77
2019-02-28T22:05:26.409Z,3.60
2019-02-28T22:07:53.911Z,3.23
2019-02-28T22:10:21.508Z,3.30
2019-02-28T22:12:48.907Z,3.70
2019-02-28T22:15:19.992Z,4.40
2019-02-28T22:17:47.390Z,3.00
2019-02-28T22:20:15.123Z,3.40
2019-02-28T22:22:42.587Z,2.90
2019-02-28T22:25:11.078Z,3.53
2019-02-28T22:27:38.546Z,4.30
2019-02-28T22:30:28.905Z,2.97
2019-02-28T22:32:57.947Z,3.60
2019-02-28T22:35:27.000Z,3.57
2019-02-28T22:37:54.423Z,3.80
2019-02-28T22:40:21.848Z,3.20
2019-02-28T22:42:49.319Z,3.90
2019-02-28T22:45:16.805Z,4.30
2019-02-28T22:47:44.256Z,3.53
2019-02-28T22:50:11.751Z,3.00
2019-02-28T22:52:39.215Z,2.20
2019-02-28T22:55:07.782Z,2.93
2019-02-28T22:57:35.175Z,2.97
2019-02-28T23:00:02.667Z,3.00
2019-02-28T23:02:30.132Z,3.00
2019-02-28T23:04:57.618Z,2.80
2019-02-28T23:07:25.001Z,2.67
2019-02-28T23:09:52.538Z,3.20
2019-02-28T23:12:20.002Z,3.57
2019-02-28T23:14:47.419Z,2.93
2019-02-28T23:17:14.805Z,3.27
2019-02-28T23:19:42.259Z,3.00
2019-02-28T23:22:09.650Z,3.17
2019-02-28T23:24:37.169Z,2.50
2019-02-28T23:27:11.450Z,3.60
2019-02-28T23:29:40.975Z,4.47
2019-02-28T23:32:12.615Z,3.63
2019-02-28T23:34:40.099Z,3.87
2019-02-28T23:37:07.540Z,3.80
2019-02-28T23:39:34.954Z,2.63
2019-02-28T23:42:02.512Z,2.67
2019-02-28T23:44:29.907Z,2.93
2019-02-28T23:46:57.329Z,2.50
2019-02-28T23:49:24.709Z,2.23
2019-02-28T23:51:52.222Z,3.10
2019-02-28T23:54:19.634Z,2.60
2019-02-28T23:56:47.054Z,2.77
2019-02-28T23:59:14.450Z,4.50
